createdAt,value
2022-08-21T00:01:59.454Z,100.00
2022-08-21T00:04:29.517Z,100.00
2022-08-21T00:07:01.018Z,100.00
2022-08-21T00:09:29.580Z,100.00
2022-08-21T00:11:57.665Z,100.00
2022-08-21T00:14:26.758Z,100.00
2022-08-21T00:17:00.213Z,100.00
2022-08-21T00:19:29.985Z,100.00
2022-08-21T00:22:11.254Z,100.00
2022-08-21T00:24:40.938Z,100.00
2022-08-21T00:27:09.656Z,100.00
2022-08-21T00:29:38.465Z,100.00
2022-08-21T00:32:06.705Z,100.00
2022-08-21T00:34:35.670Z,100.00
2022-08-21T00:37:03.730Z,100.00
2022-08-21T00:39:32.910Z,100.00
2022-08-21T00:42:00.500Z,100.00
2022-08-21T00:44:28.680Z,100.00
2022-08-21T00:46:57.478Z,100.00
2022-08-21T00:49:25.839Z,100.00
2022-08-21T00:52:01.089Z,100.00
2022-08-21T00:54:32.756Z,100.00
2022-08-21T00:57:05.965Z,100.00
2022-08-21T00:59:38.501Z,100.00
2022-08-21T01:02:09.251Z,100.00
2022-08-21T01:04:37.787Z,100.00
2022-08-21T01:07:07.488Z,100.00
2022-08-21T01:09:36.692Z,100.00
2022-08-21T01:12:06.268Z,100.00
2022-08-21T01:14:34.039Z,100.00
2022-08-21T01:17:04.517Z,100.00
2022-08-21T01:19:32.865Z,100.00
2022-08-21T01:22:01.815Z,100.00
2022-08-21T01:24:29.980Z,100.00
2022-08-21T01:26:57.862Z,100.00
2022-08-21T01:29:44.393Z,100.00
2022-08-21T01:32:16.859Z,100.00
2022-08-21T01:34:49.178Z,100.00
2022-08-21T01:37:20.453Z,100.00
2022-08-21T01:39:50.250Z,100.00
2022-08-21T01:42:19.041Z,100.00
2022-08-21T01:44:47.754Z,100.00
2022-08-21T01:47:17.598Z,100.00
2022-08-21T01:49:46.755Z,100.00
2022-08-21T01:52:15.532Z,100.00
2022-08-21T01:54:44.831Z,100.00
2022-08-21T01:57:14.528Z,100.00
2022-08-21T01:59:43.244Z,100.00
2022-08-21T02:02:11.774Z,100.00
2022-08-21T02:04:40.911Z,100.00
2022-08-21T02:07:08.689Z,100.00
2022-08-21T02:09:40.276Z,99.66
2022-08-21T02:12:09.017Z,99.93
2022-08-21T02:14:38.583Z,100.00
2022-08-21T02:17:09.489Z,100.00
2022-08-21T02:19:40.140Z,100.00
2022-08-21T02:22:11.167Z,100.00
2022-08-21T02:24:55.060Z,100.00
2022-08-21T02:27:27.560Z,100.00
2022-08-21T02:29:58.105Z,100.00
2022-08-21T02:32:27.396Z,100.00
2022-08-21T02:34:55.886Z,100.00
2022-08-21T02:37:25.663Z,100.00
2022-08-21T02:39:54.865Z,100.00
2022-08-21T02:42:23.785Z,100.00
2022-08-21T02:44:52.547Z,100.00
2022-08-21T02:47:20.620Z,100.00
2022-08-21T02:49:49.346Z,100.00
2022-08-21T02:52:17.727Z,100.00
2022-08-21T02:54:47.040Z,100.00
2022-08-21T02:57:14.713Z,100.00
2022-08-21T02:59:43.363Z,100.00
2022-08-21T03:02:12.816Z,100.00
2022-08-21T03:04:46.419Z,100.00
2022-08-21T03:07:14.631Z,100.00
2022-08-21T03:09:55.391Z,100.00
2022-08-21T03:12:26.657Z,100.00
2022-08-21T03:14:59.302Z,100.00
2022-08-21T03:17:29.388Z,100.00
2022-08-21T03:19:59.169Z,100.00
2022-08-21T03:22:28.554Z,100.00
2022-08-21T03:24:59.324Z,100.00
2022-08-21T03:27:29.816Z,100.00
2022-08-21T03:29:58.942Z,100.00
2022-08-21T03:32:28.840Z,100.00
2022-08-21T03:34:56.763Z,100.00
2022-08-21T03:37:25.829Z,100.00
2022-08-21T03:39:53.805Z,100.00
2022-08-21T03:42:22.199Z,100.00
2022-08-21T03:44:51.289Z,100.00
2022-08-21T03:47:19.802Z,100.00
2022-08-21T03:49:49.226Z,100.00
2022-08-21T03:52:18.421Z,100.00
2022-08-21T03:54:47.583Z,100.00
2022-08-21T03:57:15.684Z,100.00
2022-08-21T03:59:44.427Z,100.00
2022-08-21T04:02:18.166Z,100.00
2022-08-21T04:04:46.756Z,100.00
2022-08-21T04:07:14.634Z,100.00
2022-08-21T04:09:43.699Z,100.00
2022-08-21T04:12:11.871Z,99.27
2022-08-21T04:14:39.629Z,100.00
2022-08-21T04:17:08.149Z,100.00
2022-08-21T04:19:37.532Z,100.00
2022-08-21T04:22:05.951Z,100.00
2022-08-21T04:24:36.663Z,100.00
2022-08-21T04:27:04.836Z,100.00
2022-08-21T04:29:37.141Z,100.00
2022-08-21T04:32:07.730Z,100.00
2022-08-21T04:34:36.684Z,100.00
2022-08-21T04:37:05.227Z,100.00
2022-08-21T04:39:35.081Z,100.00
2022-08-21T04:42:03.706Z,99.55
2022-08-21T04:44:35.056Z,100.00
2022-08-21T04:47:03.970Z,100.00
2022-08-21T04:49:35.130Z,99.87
2022-08-21T04:52:04.736Z,100.00
2022-08-21T04:54:32.484Z,100.00
2022-08-21T04:57:08.400Z,100.00
2022-08-21T04:59:45.987Z,100.00
2022-08-21T05:02:15.150Z,100.00
2022-08-21T05:04:49.906Z,100.00
2022-08-21T05:07:42.446Z,100.00
2022-08-21T05:10:13.987Z,100.00
2022-08-21T05:12:45.480Z,100.00
2022-08-21T05:15:14.004Z,100.00
2022-08-21T05:17:43.182Z,100.00
2022-08-21T05:20:13.613Z,100.00
2022-08-21T05:22:42.694Z,99.94
2022-08-21T05:25:11.418Z,99.26
2022-08-21T05:27:44.167Z,99.00
2022-08-21T05:30:12.919Z,98.53
2022-08-21T05:32:43.835Z,98.32
2022-08-21T05:35:12.433Z,97.21
2022-08-21T05:37:41.630Z,95.19
2022-08-21T05:40:21.252Z,94.97
2022-08-21T05:42:55.595Z,94.65
2022-08-21T05:45:42.707Z,92.91
2022-08-21T05:48:17.108Z,92.62
2022-08-21T05:50:47.709Z,92.84
2022-08-21T05:53:19.850Z,93.04
2022-08-21T05:55:49.590Z,92.41
2022-08-21T05:58:20.236Z,94.32
2022-08-21T06:00:51.137Z,95.61
2022-08-21T06:03:23.582Z,94.25
2022-08-21T06:05:54.018Z,92.77
2022-08-21T06:08:23.780Z,94.53
2022-08-21T06:10:53.691Z,94.55
2022-08-21T06:13:23.529Z,92.82
2022-08-21T06:16:01.568Z,92.52
2022-08-21T06:18:30.582Z,91.78
2022-08-21T06:20:58.767Z,91.88
2022-08-21T06:23:39.158Z,90.91
2022-08-21T06:26:16.080Z,90.73
2022-08-21T06:28:45.226Z,93.98
2022-08-21T06:31:17.574Z,93.83
2022-08-21T06:33:46.912Z,92.78
2022-08-21T06:36:20.422Z,93.10
2022-08-21T06:38:51.242Z,91.57
2022-08-21T06:41:24.040Z,92.01
2022-08-21T06:43:52.954Z,92.27
2022-08-21T06:46:22.271Z,92.50
2022-08-21T06:48:50.762Z,93.02
2022-08-21T06:51:20.355Z,92.91
2022-08-21T06:53:50.553Z,93.54
2022-08-21T06:56:21.781Z,92.87
2022-08-21T06:58:51.523Z,93.07
2022-08-21T07:01:24.888Z,91.71
2022-08-21T07:03:54.838Z,91.71
2022-08-21T07:06:22.864Z,93.45
2022-08-21T07:08:52.006Z,91.35
2022-08-21T07:11:24.591Z,91.79
2022-08-21T07:13:55.442Z,92.43
2022-08-21T07:16:24.265Z,90.91
2022-08-21T07:18:53.010Z,90.45
2022-08-21T07:21:26.261Z,90.18
2022-08-21T07:23:55.303Z,90.19
2022-08-21T07:26:25.257Z,89.71
2022-08-21T07:28:54.732Z,87.91
2022-08-21T07:31:25.939Z,89.12
2022-08-21T07:33:53.724Z,87.94
2022-08-21T07:36:21.845Z,87.31
2022-08-21T07:38:53.160Z,86.85
2022-08-21T07:41:29.710Z,86.57
2022-08-21T07:44:01.311Z,86.06
2022-08-21T07:46:30.235Z,84.91
2022-08-21T07:48:58.761Z,83.56
2022-08-21T07:51:29.558Z,84.22
2022-08-21T07:54:00.506Z,87.30
2022-08-21T07:56:31.442Z,84.21
2022-08-21T07:58:59.832Z,82.90
2022-08-21T08:01:29.152Z,84.05
2022-08-21T08:03:57.796Z,83.00
2022-08-21T08:06:27.278Z,81.39
2022-08-21T08:08:58.546Z,81.68
2022-08-21T08:11:27.471Z,80.80
2022-08-21T08:13:59.174Z,80.72
2022-08-21T08:16:28.019Z,80.51
2022-08-21T08:18:57.121Z,79.79
2022-08-21T08:21:25.710Z,78.22
2022-08-21T08:23:54.707Z,76.71
2022-08-21T08:26:25.709Z,77.18
2022-08-21T08:28:54.901Z,77.32
2022-08-21T08:31:25.122Z,77.63
2022-08-21T08:33:54.139Z,78.12
2022-08-21T08:36:33.910Z,77.58
2022-08-21T08:39:07.019Z,77.67
2022-08-21T08:41:39.278Z,77.17
2022-08-21T08:44:12.460Z,78.95
2022-08-21T08:46:45.572Z,78.21
2022-08-21T08:49:39.386Z,77.34
2022-08-21T08:52:18.474Z,78.35
2022-08-21T08:54:57.207Z,76.75
2022-08-21T08:57:26.365Z,75.79
2022-08-21T09:00:02.547Z,75.44
2022-08-21T09:02:32.044Z,73.13
2022-08-21T09:05:03.268Z,72.59
2022-08-21T09:07:57.727Z,74.95
2022-08-21T09:10:48.362Z,72.88
2022-08-21T09:14:16.419Z,71.90
2022-08-21T09:16:51.559Z,73.66
2022-08-21T09:19:46.229Z,74.18
2022-08-21T09:22:47.978Z,73.23
2022-08-21T09:25:25.545Z,73.83
2022-08-21T09:27:58.017Z,75.79
2022-08-21T09:30:33.350Z,73.15
2022-08-21T09:33:01.852Z,73.68
2022-08-21T09:35:30.960Z,73.07
2022-08-21T09:38:06.763Z,73.28
2022-08-21T09:40:48.055Z,74.05
2022-08-21T09:43:22.979Z,77.78
2022-08-21T09:46:05.990Z,72.78
2022-08-21T09:49:14.865Z,71.71
2022-08-21T09:51:55.529Z,69.84
2022-08-21T09:54:31.421Z,67.26
2022-08-21T10:00:38.231Z,66.43
2022-08-21T10:03:26.099Z,65.54
2022-08-21T10:06:11.028Z,65.47
2022-08-21T10:08:47.534Z,63.13
2022-08-21T10:11:28.644Z,63.44
2022-08-21T10:14:16.158Z,62.32
2022-08-21T10:17:09.273Z,61.19
2022-08-21T10:19:57.214Z,60.76
2022-08-21T10:22:31.237Z,60.79
2022-08-21T10:25:11.805Z,61.13
2022-08-21T10:27:57.866Z,59.53
2022-08-21T10:30:25.648Z,58.36
2022-08-21T10:33:19.540Z,60.54
2022-08-21T10:36:21.415Z,58.31
2022-08-21T10:39:23.821Z,57.88
2022-08-21T10:42:28.308Z,59.26
2022-08-21T10:45:03.637Z,58.26
2022-08-21T10:47:43.184Z,56.75
2022-08-21T10:50:39.401Z,57.53
2022-08-21T10:53:18.232Z,56.52
2022-08-21T10:56:14.863Z,57.05
2022-08-21T10:58:51.914Z,56.51
2022-08-21T11:01:49.191Z,55.45
2022-08-21T11:04:48.994Z,55.92
2022-08-21T11:07:40.856Z,54.17
2022-08-21T11:10:22.407Z,53.58
2022-08-21T11:13:06.870Z,55.27
2022-08-21T11:15:45.414Z,52.33
2022-08-21T11:18:31.067Z,54.20
2022-08-21T11:21:32.944Z,55.47
2022-08-21T11:24:23.309Z,52.89
2022-08-21T11:26:53.478Z,55.47
2022-08-21T11:29:35.865Z,55.09
2022-08-21T11:32:58.412Z,52.41
2022-08-21T11:35:38.248Z,52.59
2022-08-21T11:38:29.217Z,52.46
2022-08-21T11:41:01.364Z,52.10
2022-08-21T11:43:43.805Z,51.96
2022-08-21T11:46:30.762Z,52.95
2022-08-21T11:49:28.608Z,51.97
2022-08-21T11:52:21.974Z,52.99
2022-08-21T11:54:55.767Z,52.51
2022-08-21T11:57:33.866Z,51.74
2022-08-21T12:00:12.698Z,53.58
2022-08-21T12:02:51.906Z,49.91
2022-08-21T12:05:34.279Z,50.56
2022-08-21T12:08:27.255Z,51.69
2022-08-21T12:11:30.852Z,50.70
2022-08-21T12:14:15.170Z,51.30
2022-08-21T12:16:49.108Z,51.56
2022-08-21T12:19:20.783Z,53.23
2022-08-21T12:22:06.797Z,52.88
2022-08-21T12:24:51.212Z,53.43
2022-08-21T12:27:27.461Z,54.88
2022-08-21T12:29:59.978Z,53.86
2022-08-21T12:32:32.307Z,53.84
2022-08-21T12:35:29.148Z,55.83
2022-08-21T12:38:14.295Z,51.71
2022-08-21T12:40:52.339Z,55.40
2022-08-21T12:43:28.877Z,53.24
2022-08-21T12:45:57.907Z,53.35
2022-08-21T12:48:36.490Z,54.48
2022-08-21T12:51:11.073Z,53.76
2022-08-21T12:53:56.822Z,51.52
2022-08-21T12:56:30.613Z,51.48
2022-08-21T12:59:12.410Z,50.49
2022-08-21T13:01:49.247Z,50.00
2022-08-21T13:04:23.196Z,46.43
2022-08-21T13:06:54.762Z,45.29
2022-08-21T13:09:30.842Z,46.29
2022-08-21T13:12:02.005Z,44.16
2022-08-21T13:14:47.857Z,43.55
2022-08-21T13:17:25.667Z,44.10
2022-08-21T13:20:00.805Z,44.21
2022-08-21T13:22:35.118Z,44.38
2022-08-21T13:25:10.491Z,42.62
2022-08-21T13:27:41.297Z,40.99
2022-08-21T13:30:16.844Z,42.87
2022-08-21T13:32:53.598Z,44.34
2022-08-21T13:35:36.956Z,45.19
2022-08-21T13:38:07.120Z,46.18
2022-08-21T13:40:58.179Z,45.79
2022-08-21T13:43:37.767Z,46.28
2022-08-21T13:46:16.741Z,45.14
2022-08-21T13:48:44.757Z,47.15
2022-08-21T13:51:13.738Z,48.49
2022-08-21T13:53:47.641Z,54.91
2022-08-21T13:56:45.022Z,50.73
2022-08-21T13:59:26.702Z,50.51
2022-08-21T14:02:18.272Z,52.77
2022-08-21T14:05:02.314Z,55.82
2022-08-21T14:07:42.111Z,55.74
2022-08-21T14:10:26.415Z,51.07
2022-08-21T14:13:02.839Z,54.64
2022-08-21T14:15:35.491Z,54.56
2022-08-21T14:18:19.486Z,54.25
2022-08-21T14:20:48.922Z,55.93
2022-08-21T14:23:27.770Z,62.56
2022-08-21T14:26:01.639Z,62.33
2022-08-21T14:28:49.113Z,63.94
2022-08-21T14:31:22.612Z,59.21
2022-08-21T14:33:52.151Z,62.99
2022-08-21T14:36:20.958Z,60.65
2022-08-21T14:38:50.159Z,63.74
2022-08-21T14:41:26.281Z,64.52
2022-08-21T14:44:06.031Z,64.88
2022-08-21T14:46:55.332Z,60.22
2022-08-21T14:49:29.443Z,63.88
2022-08-21T14:51:59.567Z,59.59
2022-08-21T14:54:33.830Z,62.17
2022-08-21T14:57:13.826Z,58.98
2022-08-21T14:59:43.374Z,59.22
2022-08-21T15:02:12.103Z,57.59
2022-08-21T15:04:40.834Z,57.38
2022-08-21T15:07:09.828Z,59.06
2022-08-21T15:09:39.866Z,57.16
2022-08-21T15:12:08.810Z,56.18
2022-08-21T15:14:43.728Z,59.90
2022-08-21T15:17:13.436Z,58.24
2022-08-21T15:19:42.583Z,57.64
2022-08-21T15:22:18.750Z,57.61
2022-08-21T15:24:49.863Z,60.35
2022-08-21T15:27:19.957Z,62.66
2022-08-21T15:32:33.095Z,61.00
2022-08-21T15:35:03.589Z,60.23
2022-08-21T15:37:32.115Z,60.29
2022-08-21T15:40:01.598Z,60.97
2022-08-21T15:42:32.109Z,60.68
2022-08-21T15:45:07.616Z,62.05
2022-08-21T15:47:39.021Z,59.92
2022-08-21T15:50:11.251Z,62.20
2022-08-21T15:52:41.463Z,61.36
2022-08-21T15:55:14.443Z,61.50
2022-08-21T15:57:58.175Z,62.59
2022-08-21T16:00:38.409Z,63.34
2022-08-21T16:03:13.152Z,63.10
2022-08-21T16:05:49.520Z,65.46
2022-08-21T16:08:19.369Z,64.81
2022-08-21T16:10:50.829Z,63.93
2022-08-21T16:16:30.145Z,62.56
2022-08-21T16:19:00.864Z,64.60
2022-08-21T16:21:30.052Z,65.69
2022-08-21T16:23:59.405Z,63.28
2022-08-21T16:26:30.875Z,66.21
2022-08-21T16:29:07.601Z,66.56
2022-08-21T16:31:36.746Z,64.73
2022-08-21T16:34:05.075Z,66.96
2022-08-21T16:36:34.884Z,68.59
2022-08-21T16:39:04.761Z,66.15
2022-08-21T16:41:36.051Z,68.13
2022-08-21T16:44:11.513Z,67.97
2022-08-21T16:47:06.480Z,70.08
2022-08-21T16:49:46.884Z,73.17
2022-08-21T16:52:19.360Z,75.72
2022-08-21T16:54:51.173Z,73.50
2022-08-21T16:57:34.091Z,71.74
2022-08-21T17:00:08.566Z,74.33
2022-08-21T17:02:40.139Z,74.91
2022-08-21T17:05:14.064Z,76.66
2022-08-21T17:07:48.927Z,75.56
2022-08-21T17:10:21.827Z,77.32
2022-08-21T17:13:14.123Z,75.24
2022-08-21T17:15:59.589Z,79.11
2022-08-21T17:34:53.877Z,74.03
2022-08-21T17:37:26.257Z,77.57
2022-08-21T17:39:58.389Z,75.90
2022-08-21T17:42:27.680Z,73.92
2022-08-21T17:44:57.847Z,74.77
2022-08-21T17:47:27.301Z,76.75
2022-08-21T17:49:57.532Z,74.61
2022-08-21T17:52:26.680Z,74.92
2022-08-21T17:54:54.740Z,76.65
2022-08-21T17:57:28.388Z,77.23
2022-08-21T17:59:58.473Z,75.88
2022-08-21T18:02:31.768Z,74.65
2022-08-21T18:05:01.242Z,76.28
2022-08-21T18:07:40.094Z,71.06
2022-08-21T18:10:12.727Z,75.66
2022-08-21T18:12:46.301Z,71.57
2022-08-21T18:15:18.709Z,73.60
2022-08-21T18:17:50.336Z,70.10
2022-08-21T18:20:22.883Z,73.88
2022-08-21T18:22:51.192Z,76.72
2022-08-21T18:25:20.570Z,75.76
2022-08-21T18:27:49.985Z,71.00
2022-08-21T18:30:22.156Z,74.67
2022-08-21T18:32:53.707Z,76.26
2022-08-21T18:35:22.828Z,74.30
2022-08-21T18:37:52.076Z,74.47
2022-08-21T18:40:21.293Z,74.50
2022-08-21T18:42:55.567Z,72.77
2022-08-21T18:45:28.750Z,72.27
2022-08-21T18:47:58.801Z,73.85
2022-08-21T18:50:29.634Z,73.41
2022-08-21T18:53:00.697Z,70.82
2022-08-21T18:55:32.026Z,72.95
2022-08-21T18:58:02.813Z,71.68
2022-08-21T19:00:38.204Z,70.77
2022-08-21T19:03:16.452Z,69.08
2022-08-21T19:05:54.527Z,66.12
2022-08-21T19:08:27.644Z,71.33
2022-08-21T19:10:58.796Z,71.09
2022-08-21T19:13:28.903Z,67.69
2022-08-21T19:16:03.530Z,70.62
2022-08-21T19:18:37.840Z,68.89
2022-08-21T19:21:08.654Z,71.95
2022-08-21T19:23:37.924Z,68.75
2022-08-21T19:26:12.594Z,69.68
2022-08-21T19:28:47.164Z,71.02
2022-08-21T19:31:26.912Z,70.32
2022-08-21T19:34:18.736Z,71.03
2022-08-21T19:36:47.153Z,72.28
2022-08-21T19:39:18.043Z,70.17
2022-08-21T19:41:51.551Z,69.37
2022-08-21T19:44:25.406Z,71.84
2022-08-21T19:46:55.253Z,70.39
2022-08-21T19:49:30.084Z,70.07
2022-08-21T19:52:07.077Z,71.51
2022-08-21T19:54:57.852Z,69.06
2022-08-21T19:57:26.734Z,69.23
2022-08-21T19:59:55.170Z,69.82
2022-08-21T20:02:28.790Z,68.69
2022-08-21T20:04:56.958Z,67.10
2022-08-21T20:07:27.191Z,66.51
2022-08-21T20:09:56.946Z,70.93
2022-08-21T20:12:26.915Z,68.09
2022-08-21T20:14:55.308Z,69.46
2022-08-21T20:17:26.184Z,66.17
2022-08-21T20:19:55.130Z,65.33
2022-08-21T20:22:24.376Z,66.91
2022-08-21T20:24:53.778Z,70.56
2022-08-21T20:27:26.391Z,67.23
2022-08-21T20:29:56.753Z,69.34
2022-08-21T20:32:27.493Z,63.83
2022-08-21T20:34:56.777Z,68.85
2022-08-21T20:37:36.330Z,68.25
2022-08-21T20:40:11.585Z,66.70
2022-08-21T20:42:51.152Z,66.26
2022-08-21T20:45:27.261Z,63.91
2022-08-21T20:48:04.016Z,64.01
2022-08-21T20:50:42.170Z,64.04
2022-08-21T20:53:23.858Z,63.03
2022-08-21T20:55:56.839Z,63.24
2022-08-21T20:58:41.402Z,61.38
2022-08-21T21:01:10.672Z,59.67
2022-08-21T21:03:51.278Z,60.29
2022-08-21T21:06:28.591Z,58.84
2022-08-21T21:09:06.076Z,58.05
2022-08-21T21:11:50.024Z,59.41
2022-08-21T21:14:30.426Z,55.74
2022-08-21T21:17:08.129Z,58.14
2022-08-21T21:19:56.153Z,59.43
2022-08-21T21:22:38.911Z,59.24
2022-08-21T21:25:40.442Z,59.29
2022-08-21T21:28:35.197Z,57.14
2022-08-21T21:31:03.726Z,57.54
2022-08-21T21:33:31.763Z,56.43
2022-08-21T21:36:10.563Z,58.80
2022-08-21T21:38:51.658Z,55.76
2022-08-21T21:42:11.466Z,56.29
2022-08-21T21:45:03.750Z,54.94
2022-08-21T21:47:50.556Z,58.47
2022-08-21T21:50:43.652Z,57.15
2022-08-21T21:53:23.062Z,58.10
2022-08-21T21:56:21.951Z,55.62
2022-08-21T21:59:09.986Z,56.20
2022-08-21T22:01:57.568Z,54.48
2022-08-21T22:04:53.987Z,56.27
2022-08-21T22:08:00.502Z,54.87
2022-08-21T22:10:53.778Z,55.11
2022-08-21T22:13:48.618Z,53.54
2022-08-21T22:16:16.867Z,56.20
2022-08-21T22:19:02.510Z,52.40
2022-08-21T22:21:40.308Z,55.21
2022-08-21T22:24:25.642Z,54.41
2022-08-21T22:27:03.220Z,53.50
2022-08-21T22:29:52.023Z,55.70
2022-08-21T22:32:26.338Z,54.71
2022-08-21T22:35:09.603Z,55.44
2022-08-21T22:37:41.645Z,54.12
2022-08-21T22:40:15.872Z,52.47
2022-08-21T22:42:58.523Z,52.82
2022-08-21T22:45:29.037Z,54.74
2022-08-21T22:48:06.172Z,55.45
2022-08-21T22:50:46.167Z,55.67
2022-08-21T22:53:26.672Z,55.12
2022-08-21T22:55:59.589Z,54.93
2022-08-21T22:58:32.104Z,54.61
2022-08-21T23:01:23.960Z,55.78
2022-08-21T23:03:54.300Z,53.20
2022-08-21T23:06:46.657Z,52.72
2022-08-21T23:09:22.385Z,52.98
2022-08-21T23:11:51.904Z,54.37
2022-08-21T23:14:19.754Z,52.00
2022-08-21T23:17:27.560Z,52.54
2022-08-21T23:20:31.025Z,53.47
2022-08-21T23:23:35.409Z,53.49
2022-08-21T23:26:46.949Z,54.25
2022-08-21T23:29:51.812Z,53.10
2022-08-21T23:32:28.410Z,54.77
2022-08-21T23:35:52.359Z,55.13
2022-08-21T23:38:33.160Z,53.14
2022-08-21T23:41:39.247Z,54.28
2022-08-21T23:44:31.540Z,54.04
2022-08-21T23:47:39.199Z,54.11
2022-08-21T23:50:32.514Z,54.33
2022-08-21T23:53:20.665Z,53.76
2022-08-21T23:55:55.388Z,53.91
2022-08-21T23:58:32.796Z,54.24
